createdAt,value
2017-07-23T00:00:47.974Z,86.29
2017-07-23T00:03:16.312Z,86.87
2017-07-23T00:05:44.653Z,87.54
2017-07-23T00:08:13.007Z,87.88
2017-07-23T00:10:41.353Z,86.12
2017-07-23T00:13:09.700Z,87.06
2017-07-23T00:15:38.058Z,87.30
2017-07-23T00:18:06.389Z,87.59
2017-07-23T00:20:34.737Z,87.35
2017-07-23T00:23:03.078Z,86.86
2017-07-23T00:25:32.166Z,86.09
2017-07-23T00:28:00.518Z,86.39
2017-07-23T00:30:28.853Z,86.66
2017-07-23T00:32:57.955Z,86.69
2017-07-23T00:35:26.288Z,86.15
2017-07-23T00:37:54.658Z,86.63
2017-07-23T00:40:23.023Z,87.24
2017-07-23T00:42:51.396Z,86.17
2017-07-23T00:45:19.744Z,86.29
2017-07-23T00:47:48.083Z,84.98
2017-07-23T00:50:16.437Z,85.55
2017-07-23T00:52:44.782Z,85.55
2017-07-23T00:55:13.214Z,86.01
2017-07-23T00:57:41.564Z,85.67
2017-07-23T01:00:09.901Z,84.55
2017-07-23T01:02:38.522Z,85.33
2017-07-23T01:05:06.845Z,85.44
2017-07-23T01:07:35.160Z,85.08
2017-07-23T01:10:03.523Z,85.09
2017-07-23T01:12:31.855Z,85.19
2017-07-23T01:15:00.455Z,84.53
2017-07-23T01:17:28.777Z,84.84
2017-07-23T01:19:57.099Z,85.35
2017-07-23T01:22:25.467Z,86.17
2017-07-23T01:24:53.783Z,86.20
2017-07-23T01:27:22.397Z,85.35
2017-07-23T01:29:50.724Z,85.05
2017-07-23T01:32:19.047Z,84.60
2017-07-23T01:34:47.398Z,83.96
2017-07-23T01:37:15.747Z,84.70
2017-07-23T01:39:44.358Z,83.51
2017-07-23T01:42:12.684Z,84.04
2017-07-23T01:44:41.019Z,84.53
2017-07-23T01:47:09.410Z,84.70
2017-07-23T01:49:37.740Z,85.09
2017-07-23T01:52:06.356Z,84.49
2017-07-23T01:54:34.697Z,84.67
2017-07-23T01:57:03.646Z,85.01
2017-07-23T01:59:31.985Z,84.61
2017-07-23T02:02:00.329Z,84.07
2017-07-23T02:04:29.417Z,83.75
2017-07-23T02:06:57.757Z,83.88
2017-07-23T02:09:26.106Z,84.32
2017-07-23T02:11:55.338Z,84.40
2017-07-23T02:14:23.658Z,84.58
2017-07-23T02:16:52.031Z,84.76
2017-07-23T02:19:21.887Z,84.76
2017-07-23T02:21:50.227Z,84.78
2017-07-23T02:24:18.588Z,83.73
2017-07-23T02:26:46.927Z,84.47
2017-07-23T02:29:15.287Z,84.42
2017-07-23T02:31:43.606Z,84.34
2017-07-23T02:34:11.965Z,85.09
2017-07-23T02:36:40.324Z,84.38
2017-07-23T02:39:08.668Z,84.03
2017-07-23T02:41:37.043Z,84.55
2017-07-23T02:44:05.381Z,84.32
2017-07-23T02:46:33.718Z,84.92
2017-07-23T02:49:02.065Z,84.39
2017-07-23T02:51:30.400Z,83.56
2017-07-23T02:53:58.750Z,83.95
2017-07-23T02:56:27.089Z,84.00
2017-07-23T02:58:55.439Z,83.21
2017-07-23T03:01:23.783Z,83.85
2017-07-23T03:03:52.112Z,83.70
2017-07-23T03:06:20.739Z,83.22
2017-07-23T03:08:49.069Z,82.96
2017-07-23T03:11:17.409Z,83.02
2017-07-23T03:13:45.764Z,83.39
2017-07-23T03:16:14.091Z,83.65
2017-07-23T03:18:42.442Z,83.78
2017-07-23T03:21:10.772Z,83.22
2017-07-23T03:23:39.125Z,82.24
2017-07-23T03:26:08.067Z,82.16
2017-07-23T03:28:36.415Z,82.37
2017-07-23T03:31:05.470Z,82.09
2017-07-23T03:33:33.802Z,82.20
2017-07-23T03:36:02.148Z,82.85
2017-07-23T03:38:30.503Z,82.95
2017-07-23T03:40:58.828Z,83.70
2017-07-23T03:43:27.425Z,83.82
2017-07-23T03:45:55.771Z,84.01
2017-07-23T03:48:24.108Z,84.18
2017-07-23T03:50:52.471Z,84.12
2017-07-23T03:53:20.798Z,84.07
2017-07-23T03:55:49.153Z,83.96
2017-07-23T03:58:17.497Z,84.52
2017-07-23T04:00:45.861Z,84.83
2017-07-23T04:03:14.209Z,84.53
2017-07-23T04:05:42.581Z,84.77
2017-07-23T04:08:10.938Z,84.93
2017-07-23T04:10:40.433Z,84.59
2017-07-23T04:13:08.755Z,84.51
2017-07-23T04:15:37.078Z,84.66
2017-07-23T04:18:05.429Z,84.63
2017-07-23T04:20:33.742Z,83.93
2017-07-23T04:23:02.096Z,84.00
2017-07-23T04:25:30.409Z,84.10
2017-07-23T04:27:58.761Z,84.05
2017-07-23T04:30:27.089Z,84.02
2017-07-23T04:32:55.447Z,83.66
2017-07-23T04:35:23.788Z,82.71
2017-07-23T04:37:52.142Z,80.92
2017-07-23T04:40:21.084Z,80.64
2017-07-23T04:42:50.140Z,81.61
2017-07-23T04:45:18.467Z,81.93
2017-07-23T04:47:50.158Z,82.04
2017-07-23T04:50:18.493Z,81.13
2017-07-23T04:52:46.826Z,81.03
2017-07-23T04:55:15.215Z,81.20
2017-07-23T04:57:43.563Z,80.74
2017-07-23T05:00:12.177Z,79.96
2017-07-23T05:02:40.517Z,80.56
2017-07-23T05:05:08.878Z,80.90
2017-07-23T05:07:37.229Z,80.26
2017-07-23T05:10:05.547Z,78.52
2017-07-23T05:12:34.176Z,77.95
2017-07-23T05:15:02.516Z,78.40
2017-07-23T05:17:30.858Z,78.62
2017-07-23T05:19:59.216Z,79.46
2017-07-23T05:22:27.549Z,79.04
2017-07-23T05:24:55.896Z,78.14
2017-07-23T05:27:24.261Z,77.51
2017-07-23T05:29:52.602Z,78.62
2017-07-23T05:32:20.962Z,78.09
2017-07-23T05:34:49.290Z,77.80
2017-07-23T05:37:17.909Z,78.32
2017-07-23T05:39:46.254Z,78.66
2017-07-23T05:42:14.603Z,77.52
2017-07-23T05:44:43.210Z,79.55
2017-07-23T05:47:11.536Z,77.45
2017-07-23T05:49:39.875Z,77.50
2017-07-23T05:52:08.228Z,76.74
2017-07-23T05:54:36.666Z,77.93
2017-07-23T05:57:05.282Z,77.30
2017-07-23T05:59:33.827Z,77.63
2017-07-23T06:02:02.173Z,78.40
2017-07-23T06:04:30.520Z,79.29
2017-07-23T06:06:58.881Z,80.23
2017-07-23T06:09:28.210Z,79.42
2017-07-23T06:11:56.560Z,80.44
2017-07-23T06:14:24.900Z,78.78
2017-07-23T06:16:53.500Z,78.01
2017-07-23T06:19:21.867Z,79.12
2017-07-23T06:21:50.199Z,79.83
2017-07-23T06:24:18.555Z,79.67
2017-07-23T06:26:46.874Z,78.28
2017-07-23T06:29:15.244Z,78.21
2017-07-23T06:31:43.577Z,77.32
2017-07-23T06:34:11.919Z,78.79
2017-07-23T06:36:40.268Z,79.86
2017-07-23T06:39:08.596Z,77.51
2017-07-23T06:41:37.195Z,76.00
2017-07-23T06:44:05.537Z,76.07
2017-07-23T06:46:33.889Z,75.95
2017-07-23T06:49:02.223Z,76.71
2017-07-23T06:51:30.560Z,75.51
2017-07-23T06:53:58.907Z,76.17
2017-07-23T06:56:27.264Z,75.09
2017-07-23T06:58:55.681Z,74.15
2017-07-23T07:01:24.043Z,73.76
2017-07-23T07:03:52.386Z,75.03
2017-07-23T07:06:20.744Z,73.83
2017-07-23T07:08:49.088Z,72.93
2017-07-23T07:11:17.413Z,74.07
2017-07-23T07:13:45.751Z,73.47
2017-07-23T07:16:14.097Z,73.55
2017-07-23T07:18:43.228Z,73.70
2017-07-23T07:21:11.594Z,73.35
2017-07-23T07:23:39.953Z,72.72
2017-07-23T07:26:08.268Z,72.20
2017-07-23T07:28:36.874Z,71.71
2017-07-23T07:31:05.222Z,71.50
2017-07-23T07:33:33.565Z,70.27
2017-07-23T07:36:01.928Z,71.44
2017-07-23T07:38:30.236Z,71.11
2017-07-23T07:40:58.856Z,70.41
2017-07-23T07:43:27.197Z,70.91
2017-07-23T07:45:55.520Z,67.93
2017-07-23T07:48:23.887Z,67.80
2017-07-23T07:50:52.216Z,68.55
2017-07-23T07:53:20.806Z,67.67
2017-07-23T07:55:51.052Z,67.11
2017-07-23T07:58:19.393Z,65.82
2017-07-23T08:00:47.750Z,64.37
2017-07-23T08:03:16.735Z,64.52
2017-07-23T08:05:45.366Z,64.75
2017-07-23T08:08:13.763Z,64.52
2017-07-23T08:10:42.084Z,63.74
2017-07-23T08:13:10.417Z,64.50
2017-07-23T08:15:38.737Z,63.66
2017-07-23T08:18:07.368Z,63.09
2017-07-23T08:20:35.763Z,60.21
2017-07-23T08:23:04.111Z,61.80
2017-07-23T08:25:32.460Z,60.90
2017-07-23T08:28:00.786Z,62.37
2017-07-23T08:30:29.416Z,62.74
2017-07-23T08:32:57.767Z,63.29
2017-07-23T08:35:26.118Z,63.37
2017-07-23T08:37:54.483Z,60.16
2017-07-23T08:40:23.550Z,59.75
2017-07-23T08:42:51.921Z,60.10
2017-07-23T08:45:20.295Z,59.74
2017-07-23T08:47:48.659Z,61.00
2017-07-23T08:50:17.019Z,60.14
2017-07-23T08:52:45.358Z,60.15
2017-07-23T08:55:13.966Z,60.44
2017-07-23T08:57:42.290Z,60.05
2017-07-23T09:00:10.653Z,60.47
2017-07-23T09:02:39.025Z,59.93
2017-07-23T09:05:07.387Z,58.95
2017-07-23T09:07:35.988Z,59.36
2017-07-23T09:10:04.321Z,59.80
2017-07-23T09:12:32.681Z,58.41
2017-07-23T09:15:01.039Z,58.49
2017-07-23T09:17:29.373Z,58.65
2017-07-23T09:19:57.724Z,59.65
2017-07-23T09:22:26.091Z,58.70
2017-07-23T09:24:54.415Z,57.07
2017-07-23T09:27:22.790Z,58.15
2017-07-23T09:29:51.160Z,57.17
2017-07-23T09:32:19.855Z,56.95
2017-07-23T09:34:48.206Z,59.03
2017-07-23T09:37:16.544Z,58.85
2017-07-23T09:39:44.910Z,58.16
2017-07-23T09:42:13.528Z,57.96
2017-07-23T09:44:41.863Z,58.20
2017-07-23T09:47:10.215Z,56.14
2017-07-23T09:49:38.583Z,57.29
2017-07-23T09:52:06.966Z,56.92
2017-07-23T09:54:35.309Z,57.84
2017-07-23T09:57:03.675Z,56.89
2017-07-23T09:59:32.028Z,56.19
2017-07-23T10:02:00.388Z,57.46
2017-07-23T10:04:29.007Z,56.73
2017-07-23T10:06:57.366Z,57.70
2017-07-23T10:09:25.687Z,56.84
2017-07-23T10:11:54.034Z,57.45
2017-07-23T10:14:22.371Z,56.46
2017-07-23T10:16:50.983Z,56.21
2017-07-23T10:19:19.339Z,55.49
2017-07-23T10:21:47.706Z,56.85
2017-07-23T10:24:16.051Z,56.02
2017-07-23T10:26:44.381Z,56.09
2017-07-23T10:29:12.753Z,56.08
2017-07-23T10:31:41.120Z,54.85
2017-07-23T10:34:09.466Z,55.04
2017-07-23T10:36:37.816Z,55.17
2017-07-23T10:39:06.158Z,55.89
2017-07-23T10:41:34.512Z,55.58
2017-07-23T10:44:02.880Z,55.81
2017-07-23T10:46:31.229Z,55.48
2017-07-23T10:48:59.831Z,53.67
2017-07-23T10:51:28.147Z,53.09
2017-07-23T10:53:56.505Z,53.16
2017-07-23T10:56:24.852Z,51.39
2017-07-23T10:58:53.171Z,50.74
2017-07-23T11:01:21.538Z,51.97
2017-07-23T11:03:49.889Z,52.51
2017-07-23T11:06:18.208Z,51.68
2017-07-23T11:08:46.809Z,52.95
2017-07-23T11:11:15.180Z,52.70
2017-07-23T11:13:43.528Z,52.65
2017-07-23T11:16:11.920Z,52.34
2017-07-23T11:18:40.256Z,52.12
2017-07-23T11:21:08.620Z,52.74
2017-07-23T11:23:36.969Z,51.45
2017-07-23T11:26:05.298Z,52.96
2017-07-23T11:28:33.888Z,52.17
2017-07-23T11:31:02.275Z,52.73
2017-07-23T11:33:30.605Z,52.02
2017-07-23T11:35:58.957Z,52.89
2017-07-23T11:38:27.300Z,52.35
2017-07-23T11:40:55.680Z,52.24
2017-07-23T11:43:24.105Z,53.53
2017-07-23T11:45:52.437Z,50.47
2017-07-23T11:48:21.882Z,51.68
2017-07-23T11:50:50.217Z,52.67
2017-07-23T11:53:18.568Z,51.87
2017-07-23T11:55:46.947Z,52.65
2017-07-23T11:58:15.292Z,52.61
2017-07-23T12:00:43.918Z,53.75
2017-07-23T12:03:12.271Z,53.08
2017-07-23T12:05:40.618Z,52.09
2017-07-23T12:08:08.956Z,52.60
2017-07-23T12:10:37.299Z,50.60
2017-07-23T12:13:05.909Z,50.95
2017-07-23T12:15:34.233Z,50.37
2017-07-23T12:18:02.559Z,51.76
2017-07-23T12:20:30.906Z,51.94
2017-07-23T12:22:59.224Z,50.86
2017-07-23T12:25:27.836Z,49.98
2017-07-23T12:27:56.176Z,47.67
2017-07-23T12:30:24.506Z,46.80
2017-07-23T12:32:52.856Z,46.16
2017-07-23T12:35:21.194Z,47.31
2017-07-23T12:37:49.816Z,47.02
2017-07-23T12:40:18.153Z,46.45
2017-07-23T12:42:46.491Z,47.83
2017-07-23T12:45:14.854Z,47.94
2017-07-23T12:47:43.178Z,48.41
2017-07-23T12:50:11.844Z,49.76
2017-07-23T12:52:40.199Z,49.23
2017-07-23T12:55:08.541Z,48.43
2017-07-23T12:57:36.896Z,48.94
2017-07-23T13:00:05.245Z,47.75
2017-07-23T13:02:33.597Z,48.62
2017-07-23T13:05:01.957Z,48.23
2017-07-23T13:07:30.282Z,48.81
2017-07-23T13:09:58.882Z,47.73
2017-07-23T13:12:27.204Z,48.27
2017-07-23T13:14:55.564Z,48.63
2017-07-23T13:17:23.982Z,47.55
2017-07-23T13:19:52.345Z,46.13
2017-07-23T13:22:20.923Z,46.88
2017-07-23T13:24:49.236Z,47.96
2017-07-23T13:27:17.569Z,46.56
2017-07-23T13:29:45.919Z,46.89
2017-07-23T13:32:14.522Z,47.70
2017-07-23T13:34:43.123Z,47.67
2017-07-23T13:37:11.456Z,48.45
2017-07-23T13:39:39.788Z,49.39
2017-07-23T13:42:08.137Z,48.45
2017-07-23T13:44:36.472Z,49.24
2017-07-23T13:47:05.539Z,49.86
2017-07-23T13:49:33.884Z,49.24
2017-07-23T13:52:02.204Z,49.79
2017-07-23T13:54:30.543Z,49.97
2017-07-23T13:56:58.885Z,50.46
2017-07-23T13:59:27.246Z,51.40
2017-07-23T14:01:55.616Z,50.94
2017-07-23T14:04:23.956Z,50.80
2017-07-23T14:06:52.327Z,49.85
2017-07-23T14:09:20.658Z,49.65
2017-07-23T14:11:49.260Z,50.02
2017-07-23T14:14:17.603Z,50.27
2017-07-23T14:16:46.036Z,50.39
2017-07-23T14:19:14.409Z,49.41
2017-07-23T14:21:42.740Z,50.91
2017-07-23T14:24:11.344Z,50.57
2017-07-23T14:26:39.684Z,49.96
2017-07-23T14:29:08.068Z,51.77
2017-07-23T14:31:36.424Z,50.78
2017-07-23T14:34:04.796Z,49.76
2017-07-23T14:36:33.157Z,50.79
2017-07-23T14:39:01.533Z,50.19
2017-07-23T14:41:29.944Z,50.77
2017-07-23T14:43:58.292Z,49.33
2017-07-23T14:46:26.617Z,49.46
2017-07-23T14:48:55.310Z,48.70
2017-07-23T14:51:23.683Z,49.96
2017-07-23T14:53:52.182Z,47.45
2017-07-23T14:56:21.129Z,47.83
2017-07-23T14:58:49.473Z,47.37
2017-07-23T15:01:18.072Z,48.94
2017-07-23T15:03:46.412Z,48.49
2017-07-23T15:06:14.741Z,47.91
2017-07-23T15:08:43.307Z,48.13
2017-07-23T15:11:11.641Z,47.89
2017-07-23T15:13:40.243Z,47.24
2017-07-23T15:16:08.576Z,48.18
2017-07-23T15:18:37.390Z,48.71
2017-07-23T15:21:05.990Z,49.62
2017-07-23T15:23:34.326Z,49.99
2017-07-23T15:26:02.660Z,48.95
2017-07-23T15:28:31.780Z,47.14
2017-07-23T15:31:00.110Z,46.45
2017-07-23T15:33:28.451Z,45.32
2017-07-23T15:35:56.802Z,43.88
2017-07-23T15:38:25.151Z,44.53
2017-07-23T15:40:53.774Z,44.39
2017-07-23T15:43:22.117Z,44.45
2017-07-23T15:45:50.439Z,45.42
2017-07-23T15:48:18.815Z,43.93
2017-07-23T15:50:47.139Z,44.98
2017-07-23T15:53:15.511Z,45.37
2017-07-23T15:55:43.903Z,44.75
2017-07-23T15:58:12.237Z,44.81
2017-07-23T16:00:40.575Z,45.53
2017-07-23T16:03:08.914Z,45.09
2017-07-23T16:05:37.528Z,44.92
2017-07-23T16:08:05.873Z,44.95
2017-07-23T16:10:34.208Z,45.26
2017-07-23T16:13:03.572Z,46.45
2017-07-23T16:15:31.901Z,45.11
2017-07-23T16:18:00.246Z,45.79
2017-07-23T16:20:28.612Z,45.64
2017-07-23T16:22:56.928Z,44.96
2017-07-23T16:25:25.277Z,45.77
2017-07-23T16:27:53.627Z,45.93
2017-07-23T16:30:21.961Z,47.91
2017-07-23T16:32:50.330Z,48.84
2017-07-23T16:35:18.691Z,46.26
2017-07-23T16:37:47.015Z,46.03
2017-07-23T16:40:15.367Z,46.47
2017-07-23T16:42:43.715Z,45.83
2017-07-23T16:45:12.089Z,45.44
2017-07-23T16:47:40.442Z,44.58
2017-07-23T16:50:08.780Z,44.69
2017-07-23T16:52:37.117Z,44.85
2017-07-23T16:55:05.440Z,44.83
2017-07-23T16:57:34.051Z,44.79
2017-07-23T17:00:02.378Z,44.52
2017-07-23T17:02:30.714Z,44.51
2017-07-23T17:04:59.760Z,44.46
2017-07-23T17:07:28.092Z,44.41
2017-07-23T17:09:56.716Z,44.96
2017-07-23T17:12:25.031Z,44.71
2017-07-23T17:14:53.371Z,44.75
2017-07-23T17:17:21.715Z,45.17
2017-07-23T17:19:50.045Z,45.03
2017-07-23T17:22:18.405Z,46.39
2017-07-23T17:24:46.758Z,49.51
2017-07-23T17:27:15.088Z,46.59
2017-07-23T17:29:43.443Z,46.19
2017-07-23T17:32:11.792Z,47.15
2017-07-23T17:34:41.181Z,46.87
2017-07-23T17:37:09.516Z,46.71
2017-07-23T17:39:37.866Z,48.24
2017-07-23T17:42:06.243Z,47.39
2017-07-23T17:44:34.566Z,47.64
2017-07-23T17:47:03.183Z,50.63
2017-07-23T17:49:32.306Z,51.08
2017-07-23T17:52:01.538Z,48.90
2017-07-23T17:54:29.898Z,48.88
2017-07-23T17:56:58.244Z,50.83
2017-07-23T17:59:27.704Z,50.69
2017-07-23T18:01:56.049Z,51.95
2017-07-23T18:04:24.374Z,51.73
2017-07-23T18:06:52.736Z,50.99
2017-07-23T18:09:21.138Z,51.28
2017-07-23T18:11:49.783Z,52.71
2017-07-23T18:14:18.128Z,53.74
2017-07-23T18:16:46.469Z,53.73
2017-07-23T18:19:14.926Z,53.64
2017-07-23T18:21:43.280Z,54.71
2017-07-23T18:24:11.664Z,54.37
2017-07-23T18:26:40.263Z,55.61
2017-07-23T18:29:08.592Z,56.60
2017-07-23T18:31:36.978Z,57.53
2017-07-23T18:34:05.560Z,57.49
2017-07-23T18:36:34.011Z,59.00
2017-07-23T18:39:02.598Z,58.98
2017-07-23T18:41:31.204Z,60.56
2017-07-23T18:43:59.665Z,59.63
2017-07-23T18:46:28.441Z,60.20
2017-07-23T18:48:56.772Z,60.96
2017-07-23T18:51:25.103Z,61.58
2017-07-23T18:53:53.468Z,60.96
2017-07-23T18:56:21.863Z,61.93
2017-07-23T18:58:50.902Z,62.29
2017-07-23T19:01:19.357Z,62.48
2017-07-23T19:03:48.042Z,62.97
2017-07-23T19:06:16.398Z,63.39
2017-07-23T19:08:44.737Z,63.50
2017-07-23T19:11:13.375Z,63.22
2017-07-23T19:13:41.730Z,63.62
2017-07-23T19:16:10.158Z,63.81
2017-07-23T19:18:38.517Z,64.07
2017-07-23T19:21:06.849Z,64.10
2017-07-23T19:23:36.326Z,64.48
2017-07-23T19:26:04.657Z,64.62
2017-07-23T19:28:33.019Z,64.65
2017-07-23T19:31:02.203Z,65.67
2017-07-23T19:33:30.540Z,66.43
2017-07-23T19:35:59.666Z,65.62
2017-07-23T19:38:28.030Z,65.20
2017-07-23T19:40:56.384Z,64.79
2017-07-23T19:43:25.566Z,64.49
2017-07-23T19:45:54.036Z,65.50
2017-07-23T19:48:23.218Z,65.96
2017-07-23T19:50:51.722Z,65.87
2017-07-23T19:53:20.275Z,65.70
2017-07-23T19:55:48.661Z,66.34
2017-07-23T19:58:17.004Z,66.58
2017-07-23T20:00:45.684Z,66.20
2017-07-23T20:03:14.024Z,65.75
2017-07-23T20:05:42.367Z,66.56
2017-07-23T20:08:10.743Z,66.36
2017-07-23T20:10:39.088Z,67.23
2017-07-23T20:13:07.716Z,67.52
2017-07-23T20:15:36.044Z,67.21
2017-07-23T20:18:04.385Z,67.24
2017-07-23T20:20:32.929Z,67.27
2017-07-23T20:23:01.264Z,67.83
2017-07-23T20:25:29.934Z,67.76
2017-07-23T20:27:58.297Z,68.01
2017-07-23T20:30:26.654Z,68.08
2017-07-23T20:32:55.010Z,68.25
2017-07-23T20:35:23.384Z,68.17
2017-07-23T20:37:51.768Z,67.58
2017-07-23T20:40:20.128Z,66.76
2017-07-23T20:42:48.464Z,66.34
2017-07-23T20:45:17.085Z,67.32
2017-07-23T20:47:45.431Z,68.70
2017-07-23T20:50:13.755Z,68.78
2017-07-23T20:52:42.102Z,68.45
2017-07-23T20:55:10.427Z,69.24
2017-07-23T20:57:39.037Z,69.16
2017-07-23T21:00:08.242Z,69.54
2017-07-23T21:02:36.606Z,69.10
2017-07-23T21:05:05.226Z,69.04
2017-07-23T21:07:33.575Z,69.07
2017-07-23T21:10:01.918Z,69.27
2017-07-23T21:12:30.264Z,69.49
2017-07-23T21:14:58.595Z,68.51
2017-07-23T21:17:27.240Z,69.05
2017-07-23T21:19:55.586Z,69.65
2017-07-23T21:22:23.948Z,69.73
2017-07-23T21:24:52.578Z,70.81
2017-07-23T21:27:20.916Z,70.57
2017-07-23T21:29:49.245Z,70.89
2017-07-23T21:32:17.626Z,70.25
2017-07-23T21:34:45.978Z,70.55
2017-07-23T21:37:14.594Z,71.06
2017-07-23T21:39:42.939Z,71.34
2017-07-23T21:42:11.284Z,72.17
2017-07-23T21:44:39.629Z,72.25
2017-07-23T21:47:07.966Z,72.14
2017-07-23T21:49:36.577Z,72.24
2017-07-23T21:52:04.916Z,71.96
2017-07-23T21:54:33.250Z,72.21
2017-07-23T21:57:01.628Z,72.39
2017-07-23T21:59:30.750Z,72.45
2017-07-23T22:01:59.422Z,72.76
2017-07-23T22:04:27.775Z,72.95
2017-07-23T22:06:56.151Z,72.31
2017-07-23T22:09:24.514Z,71.97
2017-07-23T22:11:52.845Z,72.05
2017-07-23T22:14:21.491Z,72.63
2017-07-23T22:16:49.820Z,72.72
2017-07-23T22:19:18.163Z,73.01
2017-07-23T22:21:46.794Z,72.71
2017-07-23T22:24:15.124Z,72.59
2017-07-23T22:26:43.466Z,72.60
2017-07-23T22:29:12.099Z,72.50
2017-07-23T22:31:40.434Z,72.81
2017-07-23T22:34:08.763Z,73.60
2017-07-23T22:36:37.130Z,73.96
2017-07-23T22:39:05.456Z,73.70
2017-07-23T22:41:33.795Z,73.63
2017-07-23T22:44:02.140Z,73.87
2017-07-23T22:46:30.471Z,73.96
2017-07-23T22:48:58.837Z,73.50
2017-07-23T22:51:27.159Z,73.61
2017-07-23T22:53:55.786Z,73.68
2017-07-23T22:56:24.131Z,73.43
2017-07-23T22:58:52.499Z,73.77
2017-07-23T23:01:20.851Z,73.69
2017-07-23T23:03:49.892Z,73.92
2017-07-23T23:06:18.466Z,73.83
2017-07-23T23:08:46.798Z,73.48
2017-07-23T23:11:15.125Z,72.84
2017-07-23T23:13:43.469Z,73.05
2017-07-23T23:16:11.816Z,74.02
2017-07-23T23:18:40.463Z,73.73
2017-07-23T23:21:08.784Z,73.33
2017-07-23T23:23:37.123Z,73.95
2017-07-23T23:26:05.476Z,74.36
2017-07-23T23:28:33.795Z,74.28
2017-07-23T23:31:02.148Z,74.26
2017-07-23T23:33:30.489Z,74.49
2017-07-23T23:35:58.828Z,74.65
2017-07-23T23:38:27.200Z,76.24
2017-07-23T23:40:55.542Z,76.33
2017-07-23T23:43:23.906Z,76.71
2017-07-23T23:45:52.262Z,76.89
2017-07-23T23:48:20.589Z,76.81
2017-07-23T23:50:48.936Z,76.63
2017-07-23T23:53:17.277Z,76.54
2017-07-23T23:55:45.656Z,76.53
2017-07-23T23:58:14.013Z,76.80
